This is the latest recevied weather packets stored in our database for station/object KC5CAM-13. If no packets are shown the sender has not sent any weather packets the latest 1 day(s).
| Time | Temp. | Humidity | Pressure | Rain* | Wind** | Luminosity | Snow |
|---|---|---|---|---|---|---|---|
| 1778026157 | 22.22° C | 70% | 1006.6 hPa | 0 mm | 0.89 m/s, 344° | 16 W/m² | - |
| 1778025855 | 22.22° C | 70% | 1006.8 hPa | 0 mm | 0.89 m/s, 23° | 16 W/m² | - |
| 1778025551 | 22.22° C | 70% | 1006.5 hPa | 0 mm | 0.89 m/s, 327° | 17 W/m² | - |
| 1778025250 | 22.78° C | 70% | 1006.4 hPa | 0 mm | 0.89 m/s, 9° | 20 W/m² | - |
| 1778024946 | 22.78° C | 69% | 1006.3 hPa | 0 mm | 0 m/s | 31 W/m² | - |
| 1778024644 | 23.33° C | 69% | 1006.5 hPa | 0 mm | 0.89 m/s, 331° | 36 W/m² | - |
| 1778024340 | 23.33° C | 68% | 1006.6 hPa | 0 mm | 1.34 m/s, 341° | 42 W/m² | - |
| 1778024038 | 23.33° C | 67% | 1006.6 hPa | 0 mm | 1.79 m/s, 312° | 63 W/m² | - |
| 1778023735 | 23.89° C | 69% | 1006.5 hPa | 0 mm | 0.89 m/s, 325° | 69 W/m² | - |
| 1778023433 | 23.89° C | 68% | 1006.3 hPa | 0 mm | 0.45 m/s, 334° | 61 W/m² | - |
| 1778023129 | 24.44° C | 67% | 1006.1 hPa | 0 mm | 1.79 m/s, 311° | 76 W/m² | - |
| 1778022827 | 24.44° C | 67% | 1006.2 hPa | 0 mm | 0.89 m/s, 36° | 82 W/m² | - |
| 1778022525 | 25° C | 67% | 1006.1 hPa | 0 mm | 1.34 m/s, 329° | 54 W/m² | - |
| 1778022222 | 25° C | 66% | 1006 hPa | 0 mm | 0.45 m/s, 13° | 42 W/m² | - |
| 1778021919 | 25.56° C | 66% | 1006.3 hPa | 0 mm | 0.45 m/s, 328° | 48 W/m² | - |
| 1778021616 | 26.11° C | 64% | 1006.2 hPa | 0 mm | 1.79 m/s, 43° | 62 W/m² | - |
| 1778021311 | 26.11° C | 65% | 1005.8 hPa | 0 mm | 2.24 m/s, 346° | 72 W/m² | - |
| 1778021009 | 26.67° C | 65% | 1005.9 hPa | 0 mm | 0.89 m/s, 315° | 71 W/m² | - |
| 1778020706 | 27.22° C | 64% | 1005.5 hPa | 0 mm | 0.45 m/s, 339° | 70 W/m² | - |
| 1778020403 | 27.22° C | 63% | 1005.2 hPa | 0 mm | 0.45 m/s, 334° | 69 W/m² | - |
| 1778020098 | 27.78° C | 62% | 1005.5 hPa | 0 mm | 0.45 m/s, 330° | 85 W/m² | - |
| 1778019795 | 28.33° C | 60% | 1005.3 hPa | 0 mm | 2.24 m/s, 280° | 102 W/m² | - |
| 1778019493 | 28.33° C | 61% | 1005 hPa | 0 mm | 0.45 m/s, 332° | 155 W/m² | - |
| 1778019189 | 28.89° C | 60% | 1005 hPa | 0 mm | 0 m/s | 108 W/m² | - |
| 1778018886 | 29.44° C | 56% | 1005.2 hPa | 0 mm | 1.79 m/s, 328° | 129 W/m² | - |
* Rain latest hour (hover to see other rain measurements)
** Current wind speed in m/s (hover to see current wind gust speed)